»·PEaware :: N781BT KSNA-KCRQ

N781BT :: KSNA-KCRQ

FLIGHT INFORMATION

Flight Status: Arrived
Operator: Privately registered:
United States
More flights under this callsign
Pilot: Jereme M. (20698)
Aircraft: CESSNA 310
(C310)
More flights by this aircraft type
Origin: KSNA John Wayne-Orange Co
United States
Destination: KCRQ McClellan-Palomar
United States
More flights between these airports :: More routes between these airports
Route: V23 OCN
File this flight plan on PilotEdge
Remarks: I-2 Rating
Altitude:
(Current/Filed)
5,000ft
Speed:
(Current/Filed)
188kts
Departed: 30-Jan-19 09:11 AM
Arrived: 30-Jan-19 09:40 AM
Distance/Time
Traveled:
44nm/0:29
Distance/Time
To Go:
Arrived

Flight Plot

Page will automatically refresh every two minutes.


Map Options




Map Legend


Flown Route
Filed Route
Departure Airport
Arrival Airport
Navaid (VOR, NDB)
Fix

Horizontal Profiles

Position Reports

Time Latitude Longitude Heading Altitude Ground
Speed
30-Jan-19 08:30 33.665578 -117.873421 41 60ft 0kts
30-Jan-19 08:31 33.665578 -117.873421 41 60ft 0kts
30-Jan-19 08:32 33.665578 -117.873421 41 60ft 0kts
30-Jan-19 08:33 33.665578 -117.873421 41 60ft 0kts
30-Jan-19 08:34 33.665578 -117.873421 41 60ft 0kts
30-Jan-19 08:35 33.665578 -117.873421 41 60ft 0kts
30-Jan-19 08:36 33.665578 -117.873421 41 60ft 0kts
30-Jan-19 08:37 33.665578 -117.873421 41 60ft 0kts
30-Jan-19 08:38 33.665578 -117.873421 41 60ft 0kts
30-Jan-19 08:39 33.665578 -117.873421 41 60ft 0kts
30-Jan-19 08:39 33.665578 -117.873421 41 60ft 0kts
30-Jan-19 08:40 33.665578 -117.873421 41 60ft 0kts
30-Jan-19 08:42 33.665578 -117.873421 41 60ft 0kts
30-Jan-19 08:43 33.665578 -117.873421 41 60ft 0kts
30-Jan-19 08:43 33.665578 -117.873421 41 60ft 0kts
30-Jan-19 08:44 33.665578 -117.873421 41 60ft 0kts
30-Jan-19 08:45 33.665578 -117.873421 41 60ft 0kts
30-Jan-19 08:46 33.665578 -117.873421 41 60ft 0kts
30-Jan-19 08:47 33.665578 -117.873421 41 60ft 0kts
30-Jan-19 08:48 33.665578 -117.873421 41 60ft 0kts
30-Jan-19 08:49 33.665578 -117.873421 41 60ft 0kts
30-Jan-19 08:50 33.665578 -117.873421 41 60ft 0kts
30-Jan-19 08:51 33.665578 -117.873421 41 60ft 0kts
30-Jan-19 08:52 33.665578 -117.873421 41 60ft 0kts
30-Jan-19 08:53 33.665578 -117.873421 41 60ft 0kts
30-Jan-19 08:54 33.665578 -117.873421 41 60ft 0kts
30-Jan-19 08:55 33.665578 -117.873421 41 60ft 0kts
30-Jan-19 08:56 33.665578 -117.873421 41 60ft 0kts
30-Jan-19 08:57 33.665578 -117.873421 41 60ft 0kts
30-Jan-19 08:58 33.665578 -117.873421 41 60ft 0kts
30-Jan-19 08:59 33.665578 -117.873421 41 60ft 0kts
30-Jan-19 09:00 33.665578 -117.873421 41 60ft 0kts
30-Jan-19 09:01 33.665578 -117.873421 41 60ft 0kts
30-Jan-19 09:02 33.665579 -117.873421 41 60ft 0kts
30-Jan-19 09:03 33.666865 -117.873115 34 60ft 9kts
30-Jan-19 09:04 33.669162 -117.870855 40 60ft 11kts
30-Jan-19 09:05 33.671757 -117.868359 30 59ft 12kts
30-Jan-19 09:06 33.674383 -117.866889 27 60ft 10kts
30-Jan-19 09:07 33.677226 -117.865093 27 60ft 12kts
30-Jan-19 09:08 33.679980 -117.863660 296 60ft 3kts
30-Jan-19 09:09 33.679988 -117.863681 295 60ft 0kts
30-Jan-19 09:10 33.668327 -117.868855 188 651ft 104kts
30-Jan-19 09:11 33.635818 -117.872512 185 2159ft 123kts
30-Jan-19 09:12 33.601212 -117.876023 184 3668ft 126kts
30-Jan-19 09:13 33.565520 -117.880136 185 4980ft 144kts
30-Jan-19 09:14 33.521038 -117.885422 185 5000ft 159kts
30-Jan-19 09:15 33.474547 -117.890791 184 5002ft 179kts
30-Jan-19 09:16 33.423904 -117.894112 152 4990ft 184kts
30-Jan-19 09:17 33.399985 -117.841301 112 5000ft 183kts
30-Jan-19 09:18 33.379432 -117.784661 112 5002ft 186kts
30-Jan-19 09:19 33.358725 -117.727683 112 5003ft 185kts
30-Jan-19 09:20 33.338249 -117.671061 111 5006ft 185kts
30-Jan-19 09:21 33.317562 -117.614206 112 5008ft 187kts
30-Jan-19 09:22 33.296171 -117.557479 112 5009ft 187kts
30-Jan-19 09:23 33.274714 -117.500540 112 4991ft 187kts
30-Jan-19 09:24 33.253278 -117.443620 112 5003ft 186kts
30-Jan-19 09:25 33.231839 -117.386664 112 5009ft 188kts
30-Jan-19 09:26 33.210400 -117.329664 113 5009ft 188kts
30-Jan-19 09:27 33.217825 -117.270617 71 5010ft 184kts
30-Jan-19 09:28 33.233604 -117.211874 71 4985ft 185kts
30-Jan-19 09:29 33.249372 -117.153254 71 4983ft 184kts
30-Jan-19 09:30 33.265113 -117.094813 71 4982ft 184kts
30-Jan-19 09:31 33.250999 -117.044728 148 4485ft 185kts
30-Jan-19 09:32 33.207788 -117.013984 148 3680ft 178kts
30-Jan-19 09:33 33.166387 -117.030471 221 3486ft 175kts
30-Jan-19 09:34 33.145215 -117.076683 278 3486ft 168kts
30-Jan-19 09:35 33.149982 -117.132850 266 3235ft 175kts
30-Jan-19 09:36 33.143094 -117.185374 262 1925ft 143kts
30-Jan-19 09:37 33.136643 -117.227556 260 1160ft 104kts
30-Jan-19 09:38 33.131260 -117.261284 259 566ft 96kts
30-Jan-19 09:39 33.128044 -117.279305 228 335ft 9kts
30-Jan-19 09:40 33.127999 -117.279368 230 334ft 0kts
30-Jan-19 09:41 33.127990 -117.279380 230 335ft 0kts
30-Jan-19 09:42 33.127990 -117.279380 230 335ft 0kts
30-Jan-19 09:43 33.127608 -117.278923 80 335ft 16kts
30-Jan-19 09:44 33.127290 -117.275928 63 335ft 0kts

Navigation Log

Ident Type
Flight plan parsing failed, navigation log unavailable